Information Last Ob Photographs Calibration Meteogram Network Table Neighbors Monthly Summaries Observation History Wind Roses Custom Wind Roses Data Calendar Satellite Cloud Product Download

Satellite Cloud Product

NESDIS produces a Satellite Cloud Product (SCP) that supplements the ASOS ceilometer readings. This page merges the SCP data with the METAR observations for a given UTC date. Cloud level values are presented in feet above ground level. ECA represents estimated cloud amount expressed in percentage. An IEM Web Service provided the following JSON dataset for this page. Data is available for some sites back to 1993.

Year: Month: Day: Time Order:

 

SCP Valid UTCSatellite East SounderSatellite West SounderASOS METAR Report
Mid CloudsHigh CloudsLevels [ft]ECA [%]Mid CloudsHigh CloudsLevels [ft]ECA [%]Levels ftMETAR
0050ZCLR-0SCT17000 - 200000 KADU 250055Z AUTO 00000KT 10SM 03/M04 A2979 RMK AO2
0150ZCLR-0CLR-0 KADU 250155Z AUTO 00000KT 10SM M01/M06 A2980 RMK AO2
0250ZSCT17000 - 280004SCT15000 - 250003 KADU 250255Z AUTO 00000KT 10SM M03/M06 A2979 RMK AO2